TimeCST,TemperatureF,Dew PointF,Humidity,Sea Level PressureIn,VisibilityMPH,Wind Direction,Wind SpeedMPH,Gust SpeedMPH,PrecipitationIn,Events,Conditions,WindDirDegrees,DateUTC
12:53 AM,59.0,55.0,87,30.03,10.0,WNW,4.6,-,N/A,,Overcast,290,2013-02-11 06:53:00
1:53 AM,57.9,51.1,78,30.04,10.0,WNW,5.8,-,N/A,,Partly Cloudy,300,2013-02-11 07:53:00
2:53 AM,54.0,48.0,80,30.05,10.0,NW,5.8,-,N/A,,Clear,310,2013-02-11 08:53:00
3:53 AM,55.0,45.0,69,30.09,10.0,WNW,6.9,-,N/A,,Mostly Cloudy,290,2013-02-11 09:53:00
4:53 AM,54.0,42.1,64,30.10,10.0,NNW,6.9,-,N/A,,Overcast,330,2013-02-11 10:53:00
5:53 AM,52.0,42.1,69,30.11,10.0,North,5.8,-,N/A,,Overcast,350,2013-02-11 11:53:00
6:53 AM,52.0,43.0,71,30.14,10.0,NE,4.6,-,N/A,,Overcast,40,2013-02-11 12:53:00
7:53 AM,51.1,43.0,74,30.16,10.0,NNE,8.1,-,N/A,,Overcast,20,2013-02-11 13:53:00
8:53 AM,51.1,42.1,71,30.20,10.0,ENE,4.6,-,N/A,,Overcast,70,2013-02-11 14:53:00
9:53 AM,51.1,39.9,66,30.19,10.0,NE,10.4,-,N/A,,Overcast,50,2013-02-11 15:53:00
10:53 AM,50.0,39.0,66,30.20,10.0,NE,11.5,-,N/A,,Overcast,40,2013-02-11 16:53:00
11:53 AM,51.1,39.9,66,30.20,10.0,NE,12.7,-,N/A,,Scattered Clouds,50,2013-02-11 17:53:00
12:53 PM,54.0,39.0,57,30.17,10.0,NNE,13.8,-,N/A,,Clear,30,2013-02-11 18:53:00
1:53 PM,53.1,37.0,55,30.14,10.0,NE,12.7,-,N/A,,Scattered Clouds,40,2013-02-11 19:53:00
2:53 PM,54.0,39.0,57,30.16,10.0,NE,6.9,-,N/A,,Partly Cloudy,50,2013-02-11 20:53:00
3:53 PM,53.1,39.0,59,30.14,10.0,NNE,8.1,-,N/A,,Mostly Cloudy,30,2013-02-11 21:53:00
4:53 PM,52.0,39.9,63,30.15,10.0,Calm,Calm,-,N/A,,Overcast,0,2013-02-11 22:53:00
5:53 PM,51.1,41.0,68,30.14,10.0,North,3.5,-,N/A,,Mostly Cloudy,350,2013-02-11 23:53:00
6:53 PM,50.0,44.1,80,30.17,10.0,Calm,Calm,-,0.00,,Mostly Cloudy,0,2013-02-12 00:53:00
7:53 PM,50.0,43.0,77,30.17,10.0,Calm,Calm,-,N/A,,Overcast,0,2013-02-12 01:53:00
8:53 PM,48.9,45.0,86,30.15,10.0,ENE,4.6,-,0.00,,Mostly Cloudy,60,2013-02-12 02:53:00
9:53 PM,48.9,45.0,86,30.20,10.0,Calm,Calm,-,0.00,,Overcast,0,2013-02-12 03:53:00
10:53 PM,48.9,46.0,90,30.16,10.0,ENE,4.6,-,0.00,,Mostly Cloudy,60,2013-02-12 04:53:00
11:53 PM,48.9,45.0,86,30.17,10.0,Calm,Calm,-,0.01,Rain,Light Rain,0,2013-02-12 05:53:00